sensor_id;sensor_type;location;lat;lon;timestamp;noise_LAeq;noise_LA_min;noise_LA_max;noise_LA01;noise_LA95
61321;Laerm;17737;52.586;13.284;2022-08-18T00:01:22;45.78;39.62;58.18;;
61321;Laerm;17737;52.586;13.284;2022-08-18T00:03:52;41.43;39.43;43.35;;
61321;Laerm;17737;52.586;13.284;2022-08-18T00:06:29;45.96;39.33;58.98;;
61321;Laerm;17737;52.586;13.284;2022-08-18T00:08:59;41.33;38.81;44.04;;
61321;Laerm;17737;52.586;13.284;2022-08-18T00:11:28;48.46;39.33;60.70;;
61321;Laerm;17737;52.586;13.284;2022-08-18T00:14:10;46.31;39.23;62.04;;
61321;Laerm;17737;52.586;13.284;2022-08-18T00:16:48;49.38;39.53;65.29;;
61321;Laerm;17737;52.586;13.284;2022-08-18T00:19:18;41.38;39.33;43.27;;
61321;Laerm;17737;52.586;13.284;2022-08-18T00:22:07;52.13;39.53;64.21;;
61321;Laerm;17737;52.586;13.284;2022-08-18T00:24:41;55.08;39.71;68.09;;
61321;Laerm;17737;52.586;13.284;2022-08-18T00:27:15;56.86;39.71;76.47;;
61321;Laerm;17737;52.586;13.284;2022-08-18T00:29:48;41.50;39.33;52.79;;
61321;Laerm;17737;52.586;13.284;2022-08-18T00:32:19;41.71;39.45;45.84;;
61321;Laerm;17737;52.586;13.284;2022-08-18T00:34:52;41.51;39.53;49.99;;
61321;Laerm;17737;52.586;13.284;2022-08-18T00:37:21;41.42;39.53;43.65;;
61321;Laerm;17737;52.586;13.284;2022-08-18T00:39:50;41.29;39.03;43.51;;
61321;Laerm;17737;52.586;13.284;2022-08-18T00:42:21;45.65;38.92;58.80;;
61321;Laerm;17737;52.586;13.284;2022-08-18T00:44:57;46.49;39.89;59.61;;
61321;Laerm;17737;52.586;13.284;2022-08-18T00:47:25;53.15;40.22;64.63;;
61321;Laerm;17737;52.586;13.284;2022-08-18T00:50:11;45.86;39.62;63.00;;
61321;Laerm;17737;52.586;13.284;2022-08-18T00:52:43;44.87;39.98;60.49;;
61321;Laerm;17737;52.586;13.284;2022-08-18T00:55:13;46.95;39.53;61.28;;
61321;Laerm;17737;52.586;13.284;2022-08-18T00:57:45;50.38;39.62;63.24;;
61321;Laerm;17737;52.586;13.284;2022-08-18T01:00:15;53.26;39.23;70.73;;
61321;Laerm;17737;52.586;13.284;2022-08-18T01:02:47;49.08;39.80;63.90;;
61321;Laerm;17737;52.586;13.284;2022-08-18T01:05:23;47.04;39.43;61.80;;
61321;Laerm;17737;52.586;13.284;2022-08-18T01:07:55;41.40;39.23;45.75;;
61321;Laerm;17737;52.586;13.284;2022-08-18T01:10:23;41.44;39.33;43.65;;
61321;Laerm;17737;52.586;13.284;2022-08-18T01:12:53;41.57;39.43;43.94;;
61321;Laerm;17737;52.586;13.284;2022-08-18T01:15:22;41.97;39.33;46.52;;
61321;Laerm;17737;52.586;13.284;2022-08-18T01:17:56;42.06;38.58;46.14;;
61321;Laerm;17737;52.586;13.284;2022-08-18T01:20:49;53.27;39.43;68.97;;
61321;Laerm;17737;52.586;13.284;2022-08-18T01:23:39;48.11;39.53;63.15;;
61321;Laerm;17737;52.586;13.284;2022-08-18T01:26:07;41.47;38.58;43.65;;
61321;Laerm;17737;52.586;13.284;2022-08-18T01:28:39;41.71;39.33;44.99;;
61321;Laerm;17737;52.586;13.284;2022-08-18T01:31:09;55.52;40.06;69.25;;
61321;Laerm;17737;52.586;13.284;2022-08-18T01:33:39;41.51;39.53;43.39;;
61321;Laerm;17737;52.586;13.284;2022-08-18T01:36:11;41.47;39.33;43.43;;
61321;Laerm;17737;52.586;13.284;2022-08-18T01:38:41;41.64;39.62;47.12;;
61321;Laerm;17737;52.586;13.284;2022-08-18T01:41:10;52.54;39.62;67.78;;
61321;Laerm;17737;52.586;13.284;2022-08-18T01:43:55;50.37;39.62;67.73;;
61321;Laerm;17737;52.586;13.284;2022-08-18T01:46:25;43.58;39.43;57.85;;
61321;Laerm;17737;52.586;13.284;2022-08-18T01:48:53;52.79;39.43;64.92;;
61321;Laerm;17737;52.586;13.284;2022-08-18T01:51:21;45.93;39.62;57.29;;
61321;Laerm;17737;52.586;13.284;2022-08-18T01:54:09;51.01;39.71;69.78;;
61321;Laerm;17737;52.586;13.284;2022-08-18T01:56:37;49.66;39.89;70.82;;
61321;Laerm;17737;52.586;13.284;2022-08-18T01:59:06;46.57;40.38;56.67;;
61321;Laerm;17737;52.586;13.284;2022-08-18T02:01:36;48.48;39.98;61.78;;
61321;Laerm;17737;52.586;13.284;2022-08-18T02:04:19;46.59;40.06;59.70;;
61321;Laerm;17737;52.586;13.284;2022-08-18T02:07:04;41.99;39.79;44.39;;
61321;Laerm;17737;52.586;13.284;2022-08-18T02:09:34;47.24;39.62;63.28;;
61321;Laerm;17737;52.586;13.284;2022-08-18T02:12:04;42.20;40.14;44.69;;
61321;Laerm;17737;52.586;13.284;2022-08-18T02:14:33;53.14;39.80;71.05;;
61321;Laerm;17737;52.586;13.284;2022-08-18T02:17:03;50.25;39.89;65.88;;
61321;Laerm;17737;52.586;13.284;2022-08-18T02:19:32;46.34;39.89;58.81;;
61321;Laerm;17737;52.586;13.284;2022-08-18T02:22:01;48.63;40.46;62.37;;
61321;Laerm;17737;52.586;13.284;2022-08-18T02:24:29;49.97;39.98;62.81;;
61321;Laerm;17737;52.586;13.284;2022-08-18T02:26:58;42.23;39.43;46.83;;
61321;Laerm;17737;52.586;13.284;2022-08-18T02:29:26;47.59;40.38;62.09;;
61321;Laerm;17737;52.586;13.284;2022-08-18T02:31:54;47.16;39.80;60.39;;
61321;Laerm;17737;52.586;13.284;2022-08-18T02:34:22;51.92;39.98;68.69;;
61321;Laerm;17737;52.586;13.284;2022-08-18T02:36:51;49.38;40.46;64.55;;
61321;Laerm;17737;52.586;13.284;2022-08-18T02:39:19;45.15;39.98;59.18;;
61321;Laerm;17737;52.586;13.284;2022-08-18T02:41:47;56.55;40.96;74.91;;
61321;Laerm;17737;52.586;13.284;2022-08-18T02:44:16;49.09;40.89;64.04;;
61321;Laerm;17737;52.586;13.284;2022-08-18T02:46:44;53.33;41.22;65.90;;
61321;Laerm;17737;52.586;13.284;2022-08-18T02:49:12;50.15;40.38;63.19;;
61321;Laerm;17737;52.586;13.284;2022-08-18T02:51:39;55.15;40.38;68.10;;
61321;Laerm;17737;52.586;13.284;2022-08-18T02:54:11;42.86;40.46;47.66;;
61321;Laerm;17737;52.586;13.284;2022-08-18T02:56:39;42.29;40.30;44.83;;
61321;Laerm;17737;52.586;13.284;2022-08-18T02:59:10;49.50;41.22;60.15;;
61321;Laerm;17737;52.586;13.284;2022-08-18T03:01:41;54.19;41.09;67.02;;
61321;Laerm;17737;52.586;13.284;2022-08-18T03:04:16;54.63;41.36;66.19;;
61321;Laerm;17737;52.586;13.284;2022-08-18T03:06:48;52.28;40.82;62.92;;
61321;Laerm;17737;52.586;13.284;2022-08-18T03:09:16;55.33;40.96;66.87;;
61321;Laerm;17737;52.586;13.284;2022-08-18T03:11:45;54.81;40.61;66.36;;
61321;Laerm;17737;52.586;13.284;2022-08-18T03:14:14;54.22;40.82;68.34;;
61321;Laerm;17737;52.586;13.284;2022-08-18T03:16:45;49.13;40.53;60.46;;
61321;Laerm;17737;52.586;13.284;2022-08-18T03:19:21;56.64;41.19;67.43;;
61321;Laerm;17737;52.586;13.284;2022-08-18T03:21:49;56.82;42.04;67.11;;
61321;Laerm;17737;52.586;13.284;2022-08-18T03:24:18;55.06;41.29;67.56;;
61321;Laerm;17737;52.586;13.284;2022-08-18T03:26:50;56.07;41.03;71.84;;
61321;Laerm;17737;52.586;13.284;2022-08-18T03:29:18;58.77;43.19;67.83;;
61321;Laerm;17737;52.586;13.284;2022-08-18T03:31:48;52.36;41.98;64.32;;
61321;Laerm;17737;52.586;13.284;2022-08-18T03:34:17;58.97;44.39;71.48;;
61321;Laerm;17737;52.586;13.284;2022-08-18T03:36:46;54.54;42.14;64.37;;
61321;Laerm;17737;52.586;13.284;2022-08-18T03:39:16;69.52;40.96;86.55;;
61321;Laerm;17737;52.586;13.284;2022-08-18T03:41:45;54.92;43.07;63.79;;
61321;Laerm;17737;52.586;13.284;2022-08-18T03:44:25;57.09;40.82;73.56;;
61321;Laerm;17737;52.586;13.284;2022-08-18T03:46:56;52.87;41.58;63.74;;
61321;Laerm;17737;52.586;13.284;2022-08-18T03:49:23;58.62;41.88;70.62;;
61321;Laerm;17737;52.586;13.284;2022-08-18T03:51:52;54.19;41.22;67.84;;
61321;Laerm;17737;52.586;13.284;2022-08-18T03:54:20;57.15;42.34;65.63;;
61321;Laerm;17737;52.586;13.284;2022-08-18T03:56:48;52.86;41.53;64.62;;
61321;Laerm;17737;52.586;13.284;2022-08-18T03:59:22;57.45;42.14;66.98;;
61321;Laerm;17737;52.586;13.284;2022-08-18T04:01:52;58.00;41.22;68.85;;
61321;Laerm;17737;52.586;13.284;2022-08-18T04:04:24;54.51;40.82;68.47;;
61321;Laerm;17737;52.586;13.284;2022-08-18T04:06:54;58.54;42.58;66.97;;
61321;Laerm;17737;52.586;13.284;2022-08-18T04:09:25;57.99;42.14;68.04;;
61321;Laerm;17737;52.586;13.284;2022-08-18T04:11:53;56.59;40.96;66.91;;
61321;Laerm;17737;52.586;13.284;2022-08-18T04:14:22;57.43;41.76;66.57;;
61321;Laerm;17737;52.586;13.284;2022-08-18T04:16:50;58.73;41.41;67.58;;
61321;Laerm;17737;52.586;13.284;2022-08-18T04:19:18;59.30;41.93;67.90;;
61321;Laerm;17737;52.586;13.284;2022-08-18T04:21:55;59.79;42.49;68.76;;
61321;Laerm;17737;52.586;13.284;2022-08-18T04:24:24;56.14;41.71;67.20;;
61321;Laerm;17737;52.586;13.284;2022-08-18T04:26:58;59.96;44.14;70.85;;
61321;Laerm;17737;52.586;13.284;2022-08-18T04:29:26;59.06;42.77;69.34;;
61321;Laerm;17737;52.586;13.284;2022-08-18T04:31:55;59.12;41.82;69.54;;
61321;Laerm;17737;52.586;13.284;2022-08-18T04:34:22;56.34;41.35;68.23;;
61321;Laerm;17737;52.586;13.284;2022-08-18T04:36:50;60.04;41.88;72.05;;
61321;Laerm;17737;52.586;13.284;2022-08-18T04:39:22;57.21;41.76;66.99;;
61321;Laerm;17737;52.586;13.284;2022-08-18T04:41:50;59.61;41.76;72.65;;
61321;Laerm;17737;52.586;13.284;2022-08-18T04:44:19;61.73;42.72;74.84;;
61321;Laerm;17737;52.586;13.284;2022-08-18T04:46:49;57.68;41.93;69.17;;
61321;Laerm;17737;52.586;13.284;2022-08-18T04:49:20;62.00;42.94;80.07;;
61321;Laerm;17737;52.586;13.284;2022-08-18T04:51:53;56.44;42.58;66.16;;
61321;Laerm;17737;52.586;13.284;2022-08-18T04:55:00;60.08;41.93;69.77;;
61321;Laerm;17737;52.586;13.284;2022-08-18T04:57:28;59.06;45.07;67.51;;
61321;Laerm;17737;52.586;13.284;2022-08-18T04:59:59;60.81;42.99;73.86;;
61321;Laerm;17737;52.586;13.284;2022-08-18T05:02:28;52.11;40.53;67.85;;
61321;Laerm;17737;52.586;13.284;2022-08-18T05:04:58;59.47;40.89;67.59;;
61321;Laerm;17737;52.586;13.284;2022-08-18T05:07:29;59.68;44.57;71.87;;
61321;Laerm;17737;52.586;13.284;2022-08-18T05:09:56;57.99;44.86;67.48;;
61321;Laerm;17737;52.586;13.284;2022-08-18T05:12:26;61.86;41.93;72.44;;
61321;Laerm;17737;52.586;13.284;2022-08-18T05:14:54;58.63;42.09;68.64;;
61321;Laerm;17737;52.586;13.284;2022-08-18T05:17:23;59.68;43.35;71.20;;
61321;Laerm;17737;52.586;13.284;2022-08-18T05:19:57;54.72;41.35;67.78;;
61321;Laerm;17737;52.586;13.284;2022-08-18T05:22:26;56.81;43.19;66.94;;
61321;Laerm;17737;52.586;13.284;2022-08-18T05:25:02;62.27;47.15;73.61;;
61321;Laerm;17737;52.586;13.284;2022-08-18T05:27:33;58.61;42.04;70.02;;
61321;Laerm;17737;52.586;13.284;2022-08-18T05:30:03;61.53;41.59;70.47;;
61321;Laerm;17737;52.586;13.284;2022-08-18T05:32:32;58.78;41.09;68.72;;
61321;Laerm;17737;52.586;13.284;2022-08-18T05:35:19;61.04;41.35;71.21;;
61321;Laerm;17737;52.586;13.284;2022-08-18T05:37:56;60.23;42.04;69.33;;
61321;Laerm;17737;52.586;13.284;2022-08-18T05:40:29;61.49;45.62;73.95;;
61321;Laerm;17737;52.586;13.284;2022-08-18T05:42:59;60.09;43.15;69.30;;
61321;Laerm;17737;52.586;13.284;2022-08-18T05:45:28;60.72;42.24;75.85;;
61321;Laerm;17737;52.586;13.284;2022-08-18T05:47:56;56.55;42.04;68.69;;
61321;Laerm;17737;52.586;13.284;2022-08-18T05:50:26;60.54;41.41;69.24;;
61321;Laerm;17737;52.586;13.284;2022-08-18T05:52:57;58.67;41.82;64.75;;
61321;Laerm;17737;52.586;13.284;2022-08-18T05:55:32;58.50;42.90;67.71;;
61321;Laerm;17737;52.586;13.284;2022-08-18T05:58:23;62.02;43.73;77.86;;
61321;Laerm;17737;52.586;13.284;2022-08-18T06:01:01;59.79;45.64;69.77;;
61321;Laerm;17737;52.586;13.284;2022-08-18T06:03:34;59.07;44.60;68.51;;
61321;Laerm;17737;52.586;13.284;2022-08-18T06:06:15;60.53;44.60;76.01;;
61321;Laerm;17737;52.586;13.284;2022-08-18T06:08:51;59.66;43.31;72.00;;
61321;Laerm;17737;52.586;13.284;2022-08-18T06:11:22;60.01;43.69;71.66;;
61321;Laerm;17737;52.586;13.284;2022-08-18T06:13:52;60.27;46.30;70.74;;
61321;Laerm;17737;52.586;13.284;2022-08-18T06:16:37;60.24;45.07;71.16;;
61321;Laerm;17737;52.586;13.284;2022-08-18T06:19:28;66.35;50.50;77.95;;
61321;Laerm;17737;52.586;13.284;2022-08-18T06:22:09;66.01;58.93;80.38;;
61321;Laerm;17737;52.586;13.284;2022-08-18T06:24:46;64.46;47.66;84.77;;
61321;Laerm;17737;52.586;13.284;2022-08-18T06:27:26;59.79;47.37;67.71;;
61321;Laerm;17737;52.586;13.284;2022-08-18T06:30:03;56.95;42.09;67.33;;
61321;Laerm;17737;52.586;13.284;2022-08-18T06:32:57;62.23;44.07;75.12;;
61321;Laerm;17737;52.586;13.284;2022-08-18T06:35:34;59.17;42.54;67.86;;
61321;Laerm;17737;52.586;13.284;2022-08-18T06:38:10;59.55;44.20;68.60;;
61321;Laerm;17737;52.586;13.284;2022-08-18T06:41:00;59.90;42.19;69.18;;
61321;Laerm;17737;52.586;13.284;2022-08-18T06:43:30;59.31;44.33;67.87;;
61321;Laerm;17737;52.586;13.284;2022-08-18T06:46:02;59.97;46.06;69.90;;
61321;Laerm;17737;52.586;13.284;2022-08-18T06:48:35;60.38;42.77;68.31;;
61321;Laerm;17737;52.586;13.284;2022-08-18T06:51:06;58.99;44.48;67.31;;
61321;Laerm;17737;52.586;13.284;2022-08-18T06:53:57;60.74;45.95;75.92;;
61321;Laerm;17737;52.586;13.284;2022-08-18T06:56:32;64.36;55.31;78.62;;
61321;Laerm;17737;52.586;13.284;2022-08-18T06:59:29;63.50;51.53;82.73;;
61321;Laerm;17737;52.586;13.284;2022-08-18T07:02:03;60.61;45.15;78.71;;
61321;Laerm;17737;52.586;13.284;2022-08-18T07:04:57;59.35;42.72;72.03;;
61321;Laerm;17737;52.586;13.284;2022-08-18T07:07:32;57.02;40.75;66.77;;
61321;Laerm;17737;52.586;13.284;2022-08-18T07:10:28;57.21;41.82;68.14;;
61321;Laerm;17737;52.586;13.284;2022-08-18T07:13:19;62.64;44.01;75.89;;
61321;Laerm;17737;52.586;13.284;2022-08-18T07:15:48;59.82;43.90;70.52;;
61321;Laerm;17737;52.586;13.284;2022-08-18T07:18:24;58.86;42.72;74.00;;
61321;Laerm;17737;52.586;13.284;2022-08-18T07:20:56;55.79;42.44;66.49;;
61321;Laerm;17737;52.586;13.284;2022-08-18T07:23:28;58.99;44.42;66.28;;
61321;Laerm;17737;52.586;13.284;2022-08-18T07:26:06;54.97;41.71;65.19;;
61321;Laerm;17737;52.586;13.284;2022-08-18T07:28:38;58.79;42.04;65.92;;
61321;Laerm;17737;52.586;13.284;2022-08-18T07:31:12;58.25;41.59;70.24;;
61321;Laerm;17737;52.586;13.284;2022-08-18T07:33:57;59.84;45.28;67.39;;
61321;Laerm;17737;52.586;13.284;2022-08-18T07:36:32;59.19;45.76;66.94;;
61321;Laerm;17737;52.586;13.284;2022-08-18T07:39:05;56.98;44.77;65.55;;
61321;Laerm;17737;52.586;13.284;2022-08-18T07:41:40;61.68;45.40;76.02;;
61321;Laerm;17737;52.586;13.284;2022-08-18T07:44:15;59.46;42.09;65.82;;
61321;Laerm;17737;52.586;13.284;2022-08-18T07:46:50;58.64;43.62;67.11;;
61321;Laerm;17737;52.586;13.284;2022-08-18T07:49:22;59.24;47.46;67.41;;
61321;Laerm;17737;52.586;13.284;2022-08-18T07:51:58;57.51;44.04;67.15;;
61321;Laerm;17737;52.586;13.284;2022-08-18T07:54:39;58.37;43.51;67.79;;
61321;Laerm;17737;52.586;13.284;2022-08-18T07:57:24;58.35;40.30;69.44;;
61321;Laerm;17737;52.586;13.284;2022-08-18T07:59:59;57.22;41.41;64.78;;
61321;Laerm;17737;52.586;13.284;2022-08-18T08:02:37;57.49;42.34;67.89;;
61321;Laerm;17737;52.586;13.284;2022-08-18T08:05:16;57.09;41.22;65.92;;
61321;Laerm;17737;52.586;13.284;2022-08-18T08:07:52;59.03;45.48;65.62;;
61321;Laerm;17737;52.586;13.284;2022-08-18T08:10:29;54.88;40.82;65.75;;
61321;Laerm;17737;52.586;13.284;2022-08-18T08:13:13;60.62;44.88;71.20;;
61321;Laerm;17737;52.586;13.284;2022-08-18T08:16:09;60.21;42.04;72.62;;
61321;Laerm;17737;52.586;13.284;2022-08-18T08:18:47;58.21;42.68;66.31;;
61321;Laerm;17737;52.586;13.284;2022-08-18T08:21:22;59.39;43.19;70.62;;
61321;Laerm;17737;52.586;13.284;2022-08-18T08:24:00;57.75;41.41;68.59;;
61321;Laerm;17737;52.586;13.284;2022-08-18T08:26:44;59.09;43.90;66.66;;
61321;Laerm;17737;52.586;13.284;2022-08-18T08:29:28;58.00;43.80;68.93;;
61321;Laerm;17737;52.586;13.284;2022-08-18T08:32:03;61.53;45.20;74.71;;
61321;Laerm;17737;52.586;13.284;2022-08-18T08:34:36;60.53;46.55;73.66;;
61321;Laerm;17737;52.586;13.284;2022-08-18T08:37:12;60.92;43.83;73.18;;
61321;Laerm;17737;52.586;13.284;2022-08-18T08:39:45;57.09;43.65;65.27;;
61321;Laerm;17737;52.586;13.284;2022-08-18T08:42:18;59.95;43.47;69.19;;
61321;Laerm;17737;52.586;13.284;2022-08-18T08:45:02;61.91;46.26;72.46;;
61321;Laerm;17737;52.586;13.284;2022-08-18T08:47:34;60.06;45.57;67.88;;
61321;Laerm;17737;52.586;13.284;2022-08-18T08:50:07;60.32;43.03;69.04;;
61321;Laerm;17737;52.586;13.284;2022-08-18T08:52:41;58.73;42.39;66.57;;
61321;Laerm;17737;52.586;13.284;2022-08-18T08:55:16;58.64;43.87;67.77;;
61321;Laerm;17737;52.586;13.284;2022-08-18T08:57:49;62.99;44.86;74.58;;
61321;Laerm;17737;52.586;13.284;2022-08-18T09:00:20;58.62;44.30;67.89;;
61321;Laerm;17737;52.586;13.284;2022-08-18T09:03:08;59.49;43.94;68.36;;
61321;Laerm;17737;52.586;13.284;2022-08-18T09:05:43;60.74;45.02;71.99;;
61321;Laerm;17737;52.586;13.284;2022-08-18T09:08:37;58.36;44.72;69.12;;
61321;Laerm;17737;52.586;13.284;2022-08-18T09:11:33;56.98;43.07;69.51;;
61321;Laerm;17737;52.586;13.284;2022-08-18T09:14:24;56.84;41.82;65.80;;
61321;Laerm;17737;52.586;13.284;2022-08-18T09:17:12;59.64;43.15;69.27;;
61321;Laerm;17737;52.586;13.284;2022-08-18T09:20:06;57.26;41.82;72.19;;
61321;Laerm;17737;52.586;13.284;2022-08-18T09:22:46;56.20;42.04;67.38;;
61321;Laerm;17737;52.586;13.284;2022-08-18T09:25:32;59.54;41.09;71.49;;
61321;Laerm;17737;52.586;13.284;2022-08-18T09:28:11;64.52;51.29;78.71;;
61321;Laerm;17737;52.586;13.284;2022-08-18T09:30:43;58.64;43.58;68.89;;
61321;Laerm;17737;52.586;13.284;2022-08-18T09:33:32;79.61;44.23;99.99;;
61321;Laerm;17737;52.586;13.284;2022-08-18T09:36:14;59.39;42.09;68.19;;
61321;Laerm;17737;52.586;13.284;2022-08-18T09:38:55;56.87;42.94;69.83;;
61321;Laerm;17737;52.586;13.284;2022-08-18T09:41:53;62.54;44.17;79.55;;
61321;Laerm;17737;52.586;13.284;2022-08-18T09:44:58;60.41;48.89;68.09;;
61321;Laerm;17737;52.586;13.284;2022-08-18T09:48:00;60.80;47.64;72.01;;
61321;Laerm;17737;52.586;13.284;2022-08-18T09:50:35;62.19;45.48;73.27;;
61321;Laerm;17737;52.586;13.284;2022-08-18T09:53:18;58.34;44.83;73.77;;
61321;Laerm;17737;52.586;13.284;2022-08-18T09:55:58;57.62;41.98;71.35;;
61321;Laerm;17737;52.586;13.284;2022-08-18T09:58:54;57.67;41.88;69.22;;
61321;Laerm;17737;52.586;13.284;2022-08-18T10:01:39;59.19;44.23;69.48;;
61321;Laerm;17737;52.586;13.284;2022-08-18T10:04:23;59.11;47.80;66.35;;
61321;Laerm;17737;52.586;13.284;2022-08-18T10:07:13;56.72;42.19;65.80;;
61321;Laerm;17737;52.586;13.284;2022-08-18T10:13:08;61.51;43.23;73.47;;
61321;Laerm;17737;52.586;13.284;2022-08-18T10:16:02;57.97;43.73;67.29;;
61321;Laerm;17737;52.586;13.284;2022-08-18T10:18:54;56.19;41.59;67.19;;
61321;Laerm;17737;52.586;13.284;2022-08-18T10:21:26;57.67;43.65;66.49;;
61321;Laerm;17737;52.586;13.284;2022-08-18T10:23:58;59.59;45.05;69.78;;
61321;Laerm;17737;52.586;13.284;2022-08-18T10:27:00;58.49;46.40;73.43;;
61321;Laerm;17737;52.586;13.284;2022-08-18T10:29:50;59.05;45.30;66.82;;
61321;Laerm;17737;52.586;13.284;2022-08-18T10:32:39;57.88;43.51;67.35;;
61321;Laerm;17737;52.586;13.284;2022-08-18T10:35:55;56.47;41.76;65.95;;
61321;Laerm;17737;52.586;13.284;2022-08-18T10:38:28;58.92;43.03;73.38;;
61321;Laerm;17737;52.586;13.284;2022-08-18T10:41:10;60.33;42.81;71.22;;
61321;Laerm;17737;52.586;13.284;2022-08-18T10:43:43;61.44;45.76;74.40;;
61321;Laerm;17737;52.586;13.284;2022-08-18T10:46:25;58.30;44.11;72.16;;
61321;Laerm;17737;52.586;13.284;2022-08-18T10:49:14;58.15;45.07;71.25;;
61321;Laerm;17737;52.586;13.284;2022-08-18T10:55:08;60.95;44.04;74.58;;
61321;Laerm;17737;52.586;13.284;2022-08-18T10:58:01;58.75;42.85;67.02;;
61321;Laerm;17737;52.586;13.284;2022-08-18T11:00:48;57.18;43.19;68.53;;
61321;Laerm;17737;52.586;13.284;2022-08-18T11:03:29;56.33;43.19;65.34;;
61321;Laerm;17737;52.586;13.284;2022-08-18T11:06:23;60.05;45.82;69.17;;
61321;Laerm;17737;52.586;13.284;2022-08-18T11:08:55;59.94;42.90;67.60;;
61321;Laerm;17737;52.586;13.284;2022-08-18T11:11:27;59.27;43.11;67.45;;
61321;Laerm;17737;52.586;13.284;2022-08-18T11:14:14;58.85;45.78;67.61;;
61321;Laerm;17737;52.586;13.284;2022-08-18T11:16:53;59.40;44.17;69.40;;
61321;Laerm;17737;52.586;13.284;2022-08-18T11:19:24;60.02;45.02;71.07;;
61321;Laerm;17737;52.586;13.284;2022-08-18T11:21:53;58.54;45.20;68.89;;
61321;Laerm;17737;52.586;13.284;2022-08-18T11:24:24;56.22;42.34;65.75;;
61321;Laerm;17737;52.586;13.284;2022-08-18T11:26:54;60.37;48.53;74.42;;
61321;Laerm;17737;52.586;13.284;2022-08-18T11:29:30;59.44;49.68;67.91;;
61321;Laerm;17737;52.586;13.284;2022-08-18T11:32:05;58.98;44.01;68.23;;
61321;Laerm;17737;52.586;13.284;2022-08-18T11:34:40;59.15;41.59;68.33;;
61321;Laerm;17737;52.586;13.284;2022-08-18T11:37:23;60.42;43.97;69.15;;
61321;Laerm;17737;52.586;13.284;2022-08-18T11:40:24;59.99;43.27;73.33;;
61321;Laerm;17737;52.586;13.284;2022-08-18T11:43:15;59.05;42.34;72.34;;
61321;Laerm;17737;52.586;13.284;2022-08-18T11:46:12;58.36;41.82;66.60;;
61321;Laerm;17737;52.586;13.284;2022-08-18T11:49:13;61.78;44.72;75.03;;
61321;Laerm;17737;52.586;13.284;2022-08-18T11:51:54;58.08;43.51;68.09;;
61321;Laerm;17737;52.586;13.284;2022-08-18T11:54:34;59.56;43.35;69.33;;
61321;Laerm;17737;52.586;13.284;2022-08-18T11:57:29;58.91;45.05;68.40;;
61321;Laerm;17737;52.586;13.284;2022-08-18T11:59:58;57.99;44.48;67.05;;
61321;Laerm;17737;52.586;13.284;2022-08-18T12:02:26;59.64;44.11;69.89;;
61321;Laerm;17737;52.586;13.284;2022-08-18T12:04:59;59.72;44.89;70.61;;
61321;Laerm;17737;52.586;13.284;2022-08-18T12:07:40;59.61;43.47;70.71;;
61321;Laerm;17737;52.586;13.284;2022-08-18T12:10:29;59.24;42.90;68.77;;
61321;Laerm;17737;52.586;13.284;2022-08-18T12:12:57;60.47;46.28;67.36;;
61321;Laerm;17737;52.586;13.284;2022-08-18T12:15:29;59.11;46.93;67.40;;
61321;Laerm;17737;52.586;13.284;2022-08-18T12:18:12;60.23;44.80;69.47;;
61321;Laerm;17737;52.586;13.284;2022-08-18T12:20:54;58.72;44.75;67.18;;
61321;Laerm;17737;52.586;13.284;2022-08-18T12:23:23;60.37;42.14;69.74;;
61321;Laerm;17737;52.586;13.284;2022-08-18T12:25:52;59.83;42.24;72.73;;
61321;Laerm;17737;52.586;13.284;2022-08-18T12:28:20;62.33;42.86;82.75;;
61321;Laerm;17737;52.586;13.284;2022-08-18T12:30:54;61.49;46.18;70.13;;
61321;Laerm;17737;52.586;13.284;2022-08-18T12:33:23;61.83;44.17;72.89;;
61321;Laerm;17737;52.586;13.284;2022-08-18T12:36:11;62.14;44.01;75.42;;
61321;Laerm;17737;52.586;13.284;2022-08-18T12:38:40;60.51;44.23;74.37;;
61321;Laerm;17737;52.586;13.284;2022-08-18T12:41:19;60.34;46.08;69.42;;
61321;Laerm;17737;52.586;13.284;2022-08-18T12:43:49;60.66;44.20;71.82;;
61321;Laerm;17737;52.586;13.284;2022-08-18T12:46:25;59.41;44.17;68.72;;
61321;Laerm;17737;52.586;13.284;2022-08-18T12:48:53;59.94;44.23;71.90;;
61321;Laerm;17737;52.586;13.284;2022-08-18T12:51:21;59.56;45.48;68.78;;
61321;Laerm;17737;52.586;13.284;2022-08-18T12:53:56;61.93;46.93;71.77;;
61321;Laerm;17737;52.586;13.284;2022-08-18T12:56:29;59.75;44.80;79.07;;
61321;Laerm;17737;52.586;13.284;2022-08-18T12:58:58;60.22;43.51;66.94;;
61321;Laerm;17737;52.586;13.284;2022-08-18T13:01:31;60.66;47.03;68.13;;
61321;Laerm;17737;52.586;13.284;2022-08-18T13:03:59;59.77;46.10;69.46;;
61321;Laerm;17737;52.586;13.284;2022-08-18T13:06:44;58.83;45.76;67.66;;
61321;Laerm;17737;52.586;13.284;2022-08-18T13:09:28;58.56;46.36;65.26;;
61321;Laerm;17737;52.586;13.284;2022-08-18T13:12:15;61.85;44.17;73.94;;
61321;Laerm;17737;52.586;13.284;2022-08-18T13:14:45;58.66;43.19;66.47;;
61321;Laerm;17737;52.586;13.284;2022-08-18T13:17:13;61.48;43.58;75.97;;
61321;Laerm;17737;52.586;13.284;2022-08-18T13:20:00;61.51;48.62;77.77;;
61321;Laerm;17737;52.586;13.284;2022-08-18T13:22:28;62.18;43.90;87.69;;
61321;Laerm;17737;52.586;13.284;2022-08-18T13:24:58;58.95;42.77;66.55;;
61321;Laerm;17737;52.586;13.284;2022-08-18T13:27:28;59.64;45.56;68.71;;
61321;Laerm;17737;52.586;13.284;2022-08-18T13:30:00;60.73;45.57;72.40;;
61321;Laerm;17737;52.586;13.284;2022-08-18T13:32:49;58.35;43.65;68.04;;
61321;Laerm;17737;52.586;13.284;2022-08-18T13:35:31;60.44;48.25;66.36;;
61321;Laerm;17737;52.586;13.284;2022-08-18T13:38:10;60.38;43.90;69.03;;
61321;Laerm;17737;52.586;13.284;2022-08-18T13:40:44;61.20;43.54;73.67;;
61321;Laerm;17737;52.586;13.284;2022-08-18T13:43:16;58.98;43.27;75.69;;
61321;Laerm;17737;52.586;13.284;2022-08-18T13:45:48;58.91;45.48;68.22;;
61321;Laerm;17737;52.586;13.284;2022-08-18T13:48:19;60.20;43.76;68.76;;
61321;Laerm;17737;52.586;13.284;2022-08-18T13:50:49;59.19;45.48;70.06;;
61321;Laerm;17737;52.586;13.284;2022-08-18T13:53:19;59.81;47.05;66.89;;
61321;Laerm;17737;52.586;13.284;2022-08-18T13:55:50;59.74;46.08;66.52;;
61321;Laerm;17737;52.586;13.284;2022-08-18T13:58:20;59.79;45.66;66.78;;
61321;Laerm;17737;52.586;13.284;2022-08-18T14:00:49;60.10;44.91;72.96;;
61321;Laerm;17737;52.586;13.284;2022-08-18T14:03:19;60.73;45.50;67.44;;
61321;Laerm;17737;52.586;13.284;2022-08-18T14:06:08;56.26;41.35;64.97;;
61321;Laerm;17737;52.586;13.284;2022-08-18T14:08:38;61.38;45.71;73.72;;
61321;Laerm;17737;52.586;13.284;2022-08-18T14:11:07;60.36;43.94;67.12;;
61321;Laerm;17737;52.586;13.284;2022-08-18T14:13:36;62.06;46.88;72.92;;
61321;Laerm;17737;52.586;13.284;2022-08-18T14:16:09;59.80;44.39;71.22;;
61321;Laerm;17737;52.586;13.284;2022-08-18T14:18:45;60.24;45.84;69.34;;
61321;Laerm;17737;52.586;13.284;2022-08-18T14:21:40;60.71;44.63;69.30;;
61321;Laerm;17737;52.586;13.284;2022-08-18T14:24:26;64.16;47.31;80.37;;
61321;Laerm;17737;52.586;13.284;2022-08-18T14:27:15;59.82;43.65;69.13;;